createdAt,value
2023-05-06T00:00:57.975Z,91.70
2023-05-06T00:03:24.980Z,91.70
2023-05-06T00:05:52.185Z,91.70
2023-05-06T00:08:22.036Z,91.80
2023-05-06T00:10:49.090Z,91.80
2023-05-06T00:13:17.978Z,91.80
2023-05-06T00:15:45.138Z,91.90
2023-05-06T00:18:15.124Z,91.90
2023-05-06T00:20:42.502Z,92.00
2023-05-06T00:23:10.702Z,92.00
2023-05-06T00:25:37.620Z,92.00
2023-05-06T00:28:12.651Z,92.10
2023-05-06T00:33:23.722Z,92.20
2023-05-06T00:35:52.753Z,92.20
2023-05-06T00:42:02.440Z,92.40
2023-05-06T00:44:31.409Z,92.30
2023-05-06T00:47:02.006Z,92.30
2023-05-06T00:49:31.206Z,92.40
2023-05-06T00:51:58.269Z,92.40
2023-05-06T00:54:26.745Z,92.20
2023-05-06T00:56:56.804Z,92.50
2023-05-06T00:59:23.803Z,92.60
2023-05-06T01:01:52.254Z,92.80
2023-05-06T01:04:22.561Z,92.60
2023-05-06T01:07:20.605Z,92.70
2023-05-06T01:10:08.245Z,92.70
2023-05-06T01:13:06.257Z,92.70
2023-05-06T01:15:45.634Z,92.70
2023-05-06T01:18:20.239Z,92.70
2023-05-06T01:20:51.857Z,92.80
2023-05-06T01:23:28.067Z,92.80
2023-05-06T01:28:38.260Z,92.80
2023-05-06T01:31:13.759Z,92.80
2023-05-06T01:34:08.214Z,92.80
2023-05-06T01:36:46.485Z,92.90
2023-05-06T01:39:16.716Z,92.80
2023-05-06T01:41:43.799Z,92.90
2023-05-06T01:44:11.420Z,92.90
2023-05-06T01:46:38.441Z,92.90
2023-05-06T01:49:06.630Z,93.00
2023-05-06T01:51:36.911Z,93.00
2023-05-06T01:54:06.576Z,93.00
2023-05-06T01:56:33.544Z,93.00
2023-05-06T01:59:00.479Z,93.10
2023-05-06T02:01:27.426Z,93.10
2023-05-06T02:03:54.615Z,93.10
2023-05-06T02:06:26.259Z,93.10
2023-05-06T02:08:53.369Z,93.10
2023-05-06T02:11:20.619Z,93.20
2023-05-06T02:13:50.020Z,93.20
2023-05-06T02:16:16.951Z,93.30
2023-05-06T02:18:44.017Z,93.30
2023-05-06T02:21:16.080Z,93.30
2023-05-06T02:23:45.704Z,93.30
2023-05-06T02:26:12.765Z,93.30
2023-05-06T02:28:42.779Z,93.40
2023-05-06T02:31:11.716Z,93.40
2023-05-06T02:33:42.895Z,93.50
2023-05-06T02:36:09.981Z,93.50
2023-05-06T02:38:36.979Z,93.60
2023-05-06T02:41:04.226Z,93.60
2023-05-06T02:43:31.183Z,93.70
2023-05-06T02:45:58.190Z,93.70
2023-05-06T02:48:25.269Z,93.70
2023-05-06T02:50:52.363Z,93.80
2023-05-06T02:53:19.371Z,93.80
2023-05-06T02:59:20.044Z,94.00
2023-05-06T03:02:02.173Z,94.00
2023-05-06T03:04:54.690Z,94.00
2023-05-06T03:07:25.106Z,94.10
2023-05-06T09:37:26.365Z,93.60
2023-05-06T09:39:59.768Z,93.60
2023-05-06T09:42:27.947Z,93.60
2023-05-06T09:45:03.269Z,93.60
2023-05-06T09:47:38.399Z,93.60
2023-05-06T09:50:05.975Z,93.60
2023-05-06T09:52:33.041Z,93.80
2023-05-06T09:55:00.273Z,93.80
2023-05-06T09:57:53.303Z,93.70
2023-05-06T10:00:26.992Z,93.70
2023-05-06T10:02:54.087Z,93.60
2023-05-06T10:05:25.617Z,93.70
2023-05-06T10:07:56.477Z,93.80
2023-05-06T10:10:25.375Z,93.90
2023-05-06T10:12:52.811Z,93.90
2023-05-06T10:15:19.876Z,93.90
2023-05-06T10:17:48.918Z,94.00
2023-05-06T10:20:15.930Z,94.00
2023-05-06T10:22:52.001Z,94.00
2023-05-06T10:25:31.056Z,94.30
2023-05-06T10:27:58.279Z,94.20
2023-05-06T10:30:25.919Z,94.20
2023-05-06T10:32:55.238Z,94.30
2023-05-06T10:35:41.863Z,94.30
2023-05-06T10:38:26.102Z,94.40
2023-05-06T10:40:53.172Z,94.40
2023-05-06T10:43:32.464Z,94.50
2023-05-06T10:46:10.077Z,94.50
2023-05-06T10:48:39.905Z,94.60
2023-05-06T10:51:21.637Z,94.70
2023-05-06T10:54:04.783Z,95.00
2023-05-06T10:56:36.099Z,94.70
2023-05-06T10:59:12.262Z,94.80
2023-05-06T11:01:43.815Z,94.80
2023-05-06T11:04:18.558Z,94.90
2023-05-06T11:10:11.599Z,95.00
2023-05-06T11:12:55.835Z,95.00
2023-05-06T11:15:44.003Z,94.90
2023-05-06T11:18:29.780Z,94.90
2023-05-06T11:21:08.238Z,95.00
2023-05-06T11:24:09.477Z,95.00
2023-05-06T11:26:39.191Z,95.00
2023-05-06T11:29:06.469Z,95.10
2023-05-06T11:31:39.188Z,95.10
2023-05-06T11:34:08.961Z,95.20
2023-05-06T11:36:48.395Z,95.30
2023-05-06T11:39:15.942Z,95.40
2023-05-06T11:41:43.097Z,95.40
2023-05-06T11:44:12.184Z,95.40
2023-05-06T11:46:39.707Z,95.60
2023-05-06T11:49:06.806Z,95.70
2023-05-06T11:51:33.745Z,95.80
2023-05-06T11:54:08.382Z,95.80
2023-05-06T11:56:49.043Z,95.90
2023-05-06T11:59:16.278Z,95.90
2023-05-06T12:01:43.812Z,95.90
2023-05-06T12:04:11.562Z,95.90
2023-05-06T12:06:39.166Z,96.10
2023-05-06T12:09:07.631Z,96.10
2023-05-06T12:11:35.510Z,96.20
2023-05-06T12:14:03.490Z,96.20
2023-05-06T12:16:30.626Z,96.20
2023-05-06T12:18:57.860Z,96.20
2023-05-06T12:21:25.087Z,96.20
2023-05-06T12:23:57.560Z,96.20
2023-05-06T12:26:27.437Z,96.40
2023-05-06T12:29:09.244Z,96.50
2023-05-06T12:31:36.717Z,96.60
2023-05-06T12:34:04.248Z,96.80
2023-05-06T12:36:34.053Z,96.90
2023-05-06T12:39:09.540Z,97.00
2023-05-06T12:41:44.092Z,97.10
2023-05-06T12:44:33.550Z,97.20
2023-05-06T12:47:09.068Z,97.40
2023-05-06T12:50:08.604Z,97.30
2023-05-06T12:52:43.295Z,97.30
2023-05-06T12:55:10.125Z,97.40
2023-05-06T12:57:40.052Z,97.50
2023-05-06T13:00:10.437Z,97.50
2023-05-06T13:02:55.860Z,97.60
2023-05-06T13:05:29.311Z,97.70
2023-05-06T13:07:56.977Z,97.80
2023-05-06T13:10:44.559Z,97.80
2023-05-06T13:13:16.960Z,97.90
2023-05-06T13:15:46.833Z,98.00
2023-05-06T13:18:19.041Z,98.00
2023-05-06T13:20:46.165Z,98.10
2023-05-06T13:23:13.154Z,98.10
2023-05-06T13:25:56.339Z,98.10
2023-05-06T13:28:27.860Z,98.20
2023-05-06T13:30:54.878Z,98.30
2023-05-06T13:33:24.866Z,98.40
2023-05-06T13:35:54.517Z,98.50
2023-05-06T13:38:22.390Z,98.60
2023-05-06T13:41:08.058Z,98.80
2023-05-06T13:43:38.327Z,99.00
2023-05-06T13:46:05.661Z,99.10
2023-05-06T13:49:01.669Z,99.10
2023-05-06T13:51:30.932Z,99.10
2023-05-06T13:54:07.537Z,99.10
2023-05-06T13:56:36.402Z,99.10
2023-05-06T13:59:03.329Z,99.10
2023-05-06T14:01:30.543Z,99.10
2023-05-06T14:03:57.416Z,99.20
2023-05-06T14:06:24.472Z,99.30
2023-05-06T14:08:54.571Z,99.40
2023-05-06T14:11:24.632Z,99.50
2023-05-06T14:13:51.566Z,99.50
2023-05-06T14:16:18.879Z,99.60
2023-05-06T14:18:46.063Z,99.60
2023-05-06T14:21:15.860Z,99.60
2023-05-06T14:23:42.795Z,99.70
2023-05-06T14:26:09.625Z,99.70
2023-05-06T14:28:37.585Z,99.70
2023-05-06T14:31:04.690Z,99.80
2023-05-06T14:33:31.548Z,99.80
2023-05-06T14:36:03.590Z,99.90
2023-05-06T14:38:31.125Z,99.90
2023-05-06T14:40:59.400Z,99.90
2023-05-06T14:43:26.457Z,99.90
2023-05-06T14:45:54.162Z,99.90
2023-05-06T14:48:21.191Z,99.90
2023-05-06T14:50:48.039Z,99.90
2023-05-06T14:53:15.153Z,99.90
2023-05-06T14:55:42.193Z,99.90
2023-05-06T14:58:09.540Z,99.90
2023-05-06T15:00:36.488Z,99.90
2023-05-06T15:03:03.574Z,99.90
2023-05-06T15:05:30.598Z,99.90
2023-05-06T15:07:57.565Z,99.90
2023-05-06T15:10:24.696Z,99.90
2023-05-06T15:12:51.657Z,99.90
2023-05-06T15:15:22.998Z,99.90
2023-05-06T15:17:52.520Z,99.90
2023-05-06T15:20:19.329Z,99.90
2023-05-06T15:22:46.497Z,99.90
2023-05-06T15:25:22.530Z,99.90
2023-05-06T15:27:57.796Z,99.90
2023-05-06T15:30:34.064Z,99.90
2023-05-06T15:33:02.018Z,99.90
2023-05-06T15:35:30.828Z,99.90
2023-05-06T15:37:58.993Z,99.90
2023-05-06T15:40:26.945Z,99.90
2023-05-06T15:42:53.775Z,99.90
2023-05-06T15:45:23.800Z,99.90
2023-05-06T15:47:50.701Z,99.90
2023-05-06T15:50:32.811Z,99.90
2023-05-06T15:53:01.389Z,99.90
2023-05-06T15:55:35.106Z,99.90
2023-05-06T15:58:10.562Z,99.90
2023-05-06T16:00:37.659Z,99.90
2023-05-06T16:03:04.716Z,99.90
2023-05-06T16:05:32.054Z,99.90
2023-05-06T16:07:59.029Z,99.90
2023-05-06T16:10:27.769Z,99.90
2023-05-06T16:12:54.860Z,99.90
2023-05-06T16:15:22.308Z,99.90
2023-05-06T16:17:58.644Z,99.90
2023-05-06T16:20:25.688Z,99.90
2023-05-06T16:22:53.091Z,99.90
2023-05-06T16:25:20.127Z,99.90
2023-05-06T16:27:49.816Z,99.90
2023-05-06T16:30:20.460Z,99.90
2023-05-06T16:32:47.755Z,99.90
2023-05-06T16:35:26.309Z,99.90
2023-05-06T16:37:57.998Z,99.90
2023-05-06T16:40:26.054Z,99.90
2023-05-06T16:42:56.349Z,99.90
2023-05-06T16:45:23.515Z,99.90
2023-05-06T16:47:50.784Z,99.90
2023-05-06T16:50:17.807Z,99.90
2023-05-06T16:52:44.863Z,99.90
2023-05-06T16:55:11.784Z,99.90
2023-05-06T16:57:38.836Z,99.90
2023-05-06T17:00:08.549Z,99.90
2023-05-06T17:02:39.067Z,99.90
2023-05-06T17:05:07.776Z,99.90
2023-05-06T17:07:41.586Z,99.90
2023-05-06T17:10:09.172Z,99.90
2023-05-06T17:12:36.451Z,99.90
2023-05-06T17:15:04.119Z,99.90
2023-05-06T17:17:33.840Z,99.90
2023-05-06T17:20:02.328Z,99.90
2023-05-06T17:22:29.318Z,99.90
2023-05-06T17:24:59.531Z,99.90
2023-05-06T17:27:30.892Z,99.90
2023-05-06T17:29:58.756Z,99.90
2023-05-06T17:32:26.272Z,99.90
2023-05-06T17:34:53.440Z,99.90
2023-05-06T17:37:20.600Z,99.90
2023-05-06T17:39:47.735Z,99.90
2023-05-06T17:42:14.903Z,99.90
2023-05-06T17:44:42.895Z,99.90
2023-05-06T17:47:33.082Z,99.90
2023-05-06T17:50:09.219Z,99.90
2023-05-06T17:52:36.372Z,99.90
2023-05-06T17:55:15.900Z,99.90
2023-05-06T17:57:47.372Z,99.90
2023-05-06T18:00:18.099Z,99.90
2023-05-06T18:02:45.475Z,99.90
2023-05-06T18:05:25.104Z,99.90
2023-05-06T18:07:52.430Z,99.90
2023-05-06T18:10:19.799Z,99.90
2023-05-06T18:13:07.467Z,99.90
2023-05-06T18:15:41.804Z,99.90
2023-05-06T18:20:53.395Z,99.90
2023-05-06T18:23:26.821Z,99.90
2023-05-06T18:25:54.077Z,99.90
2023-05-06T18:28:21.018Z,99.90
2023-05-06T18:30:51.276Z,99.90
2023-05-06T18:33:21.883Z,99.90
2023-05-06T18:35:48.958Z,99.90
2023-05-06T18:38:15.924Z,99.90
2023-05-06T18:40:46.758Z,99.90
2023-05-06T18:43:13.700Z,99.90
2023-05-06T18:45:41.975Z,99.90
2023-05-06T18:48:08.944Z,99.90
2023-05-06T18:50:36.910Z,99.90
2023-05-06T18:53:04.166Z,99.90
2023-05-06T18:55:31.295Z,99.90
2023-05-06T18:57:58.440Z,99.90
2023-05-06T19:00:39.450Z,99.90
2023-05-06T19:03:08.339Z,99.90
2023-05-06T19:05:40.168Z,99.90
2023-05-06T19:08:07.731Z,99.90
2023-05-06T19:10:34.980Z,99.90
2023-05-06T19:13:02.324Z,99.90
2023-05-06T19:15:29.483Z,99.90
2023-05-06T19:17:58.126Z,99.90
2023-05-06T19:20:25.024Z,99.90
2023-05-06T19:22:54.389Z,99.90
2023-05-06T19:25:21.636Z,99.90
2023-05-06T19:27:48.776Z,99.90
2023-05-06T19:30:15.863Z,99.90
2023-05-06T19:32:44.590Z,99.90
2023-05-06T19:35:12.066Z,99.90
2023-05-06T19:37:39.470Z,99.90
2023-05-06T19:40:10.472Z,99.90
2023-05-06T19:42:37.439Z,99.90
2023-05-06T19:45:08.435Z,99.90
2023-05-06T19:47:38.338Z,99.90
2023-05-06T19:50:06.279Z,99.90
2023-05-06T19:52:34.858Z,99.90
2023-05-06T19:55:07.309Z,99.90
2023-05-06T19:57:38.522Z,99.90
2023-05-06T20:00:18.396Z,99.90
2023-05-06T20:02:49.438Z,99.90
2023-05-06T20:05:31.553Z,99.90
2023-05-06T20:08:17.380Z,99.90
2023-05-06T20:12:01.219Z,99.90
2023-05-06T20:14:28.636Z,99.90
2023-05-06T20:20:11.469Z,99.90
2023-05-06T20:24:13.762Z,99.90
2023-05-06T20:26:41.422Z,99.90
2023-05-06T20:29:47.421Z,99.90
2023-05-06T20:32:14.527Z,99.90
2023-05-06T20:34:54.369Z,99.90
2023-05-06T20:40:12.077Z,99.90
2023-05-06T20:42:40.683Z,99.90
2023-05-06T20:45:08.310Z,99.90
2023-05-06T20:47:36.160Z,99.90
2023-05-06T20:50:03.278Z,99.90
2023-05-06T20:52:30.224Z,99.90
2023-05-06T20:54:59.528Z,99.90
2023-05-06T20:57:29.315Z,99.90
2023-05-06T20:59:59.209Z,99.90
2023-05-06T21:02:34.317Z,99.90
2023-05-06T21:05:08.264Z,99.90
2023-05-06T21:07:35.199Z,99.90
2023-05-06T21:10:03.309Z,99.90
2023-05-06T21:12:36.030Z,99.90
2023-05-06T21:15:06.273Z,99.90
2023-05-06T21:17:33.137Z,99.90
2023-05-06T21:20:03.649Z,99.90
2023-05-06T21:25:45.775Z,99.90
2023-05-06T21:28:16.279Z,99.90
2023-05-06T21:30:48.470Z,99.90
2023-05-06T21:33:15.288Z,99.90
2023-05-06T21:35:55.317Z,99.90
2023-05-06T21:38:27.638Z,99.90
2023-05-06T21:40:55.742Z,99.90
2023-05-06T21:43:46.039Z,99.90
2023-05-06T21:46:12.864Z,99.90
2023-05-06T21:49:06.872Z,99.90
2023-05-06T21:51:30.891Z,99.90
2023-05-06T21:54:07.155Z,99.90
2023-05-06T21:56:34.021Z,99.90
2023-05-06T21:59:09.594Z,99.90
2023-05-06T22:01:36.710Z,99.90
2023-05-06T22:04:17.266Z,99.90
2023-05-06T22:06:44.126Z,99.90
2023-05-06T22:09:19.805Z,99.90
2023-05-06T22:12:00.428Z,99.90
2023-05-06T22:18:11.769Z,99.90
2023-05-06T22:21:12.254Z,99.90
2023-05-06T22:26:45.383Z,99.90
2023-05-06T22:29:12.466Z,99.90
2023-05-06T22:31:45.980Z,99.90
2023-05-06T22:34:15.637Z,99.90
2023-05-06T22:36:58.201Z,99.90
2023-05-06T22:39:29.951Z,99.90
2023-05-06T22:42:00.068Z,99.90
2023-05-06T22:44:27.928Z,99.90
2023-05-06T22:46:57.496Z,99.90
2023-05-06T22:49:29.129Z,99.90
2023-05-06T22:51:56.618Z,99.90
2023-05-06T22:54:26.232Z,99.90
2023-05-06T22:56:55.597Z,99.90
2023-05-06T22:59:22.676Z,99.90
2023-05-06T23:01:49.674Z,99.90
2023-05-06T23:04:16.765Z,99.90
2023-05-06T23:06:44.495Z,99.90
2023-05-06T23:09:12.508Z,99.90
2023-05-06T23:11:40.144Z,99.90
2023-05-06T23:14:07.694Z,99.90
2023-05-06T23:16:34.737Z,99.90
2023-05-06T23:19:02.027Z,99.90
2023-05-06T23:21:31.628Z,99.90
2023-05-06T23:24:01.040Z,99.90
2023-05-06T23:26:28.363Z,99.90
2023-05-06T23:28:55.766Z,99.90
2023-05-06T23:31:22.575Z,99.90
2023-05-06T23:33:49.365Z,99.90
2023-05-06T23:36:16.642Z,99.90
2023-05-06T23:42:08.486Z,99.90
2023-05-06T23:44:35.570Z,99.90
2023-05-06T23:47:02.401Z,99.90
2023-05-06T23:49:29.460Z,99.90
2023-05-06T23:51:59.653Z,99.90
2023-05-06T23:54:27.166Z,99.90
2023-05-06T23:56:55.906Z,99.90
2023-05-06T23:59:22.920Z,99.90
